Iris Victoria — V7TS8 — position and weather

sailwx.info

Track history (hours):
 
Tides and Currents Weather Stations Pressure Air Temp Water Temp Dewpoint Dewpoint Depression Visibility Wind Speed Wind Dir Waves Ship Positions

Iris Victoria

Last reported at 2018-Feb-17 19:18 UTC. Time now 2018-Feb-22 19:25 UTC.
Position N 27°35' W 015°14'.

Length 228 m; draft 13.1 m.

Type: Tanker. MMSI: 538003876.

Date/timePositionNaut miles runAvg speedWind from/ knotsBaromVisibWave heightAir tempDewpointWater temp
2018-Feb-17 19:18N 27°35' W 015°14'414.8
2018-Feb-17 19:00N 27°39' W 015°12'815.2
2018-Feb-17 18:29N 27°46' W 015°09'715.5
2018-Feb-17 18:01N 27°53' W 015°07'815.1
2018-Feb-17 17:31N 28°00' W 015°04'714.8
2018-Feb-17 17:00N 28°07' W 015°01'714.9
2018-Feb-17 16:30N 28°14' W 014°58'714.8
2018-Feb-17 16:00N 28°21' W 014°55'715.0
2018-Feb-17 15:30N 28°28' W 014°52'714.9
2018-Feb-17 15:00N 28°35' W 014°50'814.7
2018-Feb-17 14:29N 28°43' W 014°48'  
2018-Feb-12 21:09N 49°46' W 003°49'212.5
2018-Feb-12 21:00N 49°47' W 003°47'712.3
2018-Feb-12 20:24N 49°50' W 003°36'512.1
2018-Feb-12 19:57N 49°52' W 003°28'511.7
2018-Feb-12 19:30N 49°54' W 003°21'611.5
2018-Feb-12 19:00N 49°56' W 003°13'611.5
2018-Feb-12 18:30N 49°58' W 003°04'611.2
2018-Feb-12 18:00N 49°59' W 002°56'611.0
2018-Feb-12 17:30N 50°01' W 002°47'611.2
2018-Feb-12 16:59N 50°02' W 002°39'2011.6
2018-Feb-12 15:14N 50°08' W 002°08'312.6
2018-Feb-12 15:00N 50°09' W 002°04'612.4
2018-Feb-12 14:30N 50°10' W 001°55'612.8
2018-Feb-12 14:00N 50°12' W 001°45'713.4
2018-Feb-12 13:30N 50°13' W 001°35'713.8
2018-Feb-12 13:01N 50°15' W 001°24'714.0
2018-Feb-12 12:30N 50°17' W 001°14'2814.1
2018-Feb-12 10:29N 50°24' W 000°31'613.4
2018-Feb-12 10:01N 50°26' W 000°21'612.8
2018-Feb-12 09:30N 50°28' W 000°11'612.2
2018-Feb-12 09:01N 50°29' W 000°02'611.6
2018-Feb-12 08:29N 50°31' E 000°07'511.2
2018-Feb-12 08:00N 50°32' E 000°15'611.1
2018-Feb-12 07:30N 50°34' E 000°24'511.0
2018-Feb-12 07:00N 50°35' E 000°32'611.2
2018-Feb-12 06:30N 50°38' E 000°40'611.6
2018-Feb-12 06:00N 50°41' E 000°47'612.0
2018-Feb-12 05:30N 50°44' E 000°55'612.6
2018-Feb-12 05:00N 50°47' E 001°04'713.3
2018-Feb-12 04:30N 50°51' E 001°13'713.9
2018-Feb-12 04:00N 50°56' E 001°20'714.2
2018-Feb-12 03:31N 51°01' E 001°28'714.3
2018-Feb-12 03:00N 51°07' E 001°36'713.7
2018-Feb-12 02:30N 51°12' E 001°43'612.9
2018-Feb-12 02:00N 51°17' E 001°49'612.3
2018-Feb-12 01:30N 51°22' E 001°55'510.3
2018-Feb-12 01:00N 51°25' E 002°02'510.8
2018-Feb-12 00:30N 51°23' E 002°10'610.8
2018-Feb-11 23:59N 51°20' E 002°18'510.7
2018-Feb-11 23:30N 51°22' E 002°26'610.3
2018-Feb-11 22:58N 51°23' E 002°35'510.1
2018-Feb-11 22:28N 51°22' E 002°43'4 8.4
2018-Feb-11 22:00N 51°25' E 002°48'5 9.3
2018-Feb-11 21:30N 51°25' E 002°55'5 9.9
2018-Feb-11 21:00N 51°25' E 003°03'5 9.6
2018-Feb-11 20:30N 51°24' E 003°11'510.1
2018-Feb-11 20:00N 51°24' E 003°19'510.5
2018-Feb-11 19:30N 51°25' E 003°27'5 9.6
2018-Feb-11 19:00N 51°26' E 003°35'3 5.9
2018-Feb-11 18:30N 51°26' E 003°39'5 9.8
2018-Feb-11 18:00N 51°23' E 003°44'611.4
2018-Feb-11 17:30N 51°21' E 003°53'611.5
2018-Feb-11 17:00N 51°26' E 003°58'5 9.5
2018-Feb-11 16:30N 51°22' E 004°04'611.1
2018-Feb-11 16:00N 51°24' E 004°12'4 8.4
2018-Feb-11 15:31N 51°21' E 004°17'0 0.4
2018-Feb-11 15:00N 51°21' E 004°17'0 0.0
2018-Feb-11 14:30N 51°21' E 004°17'0 0.8
2018-Feb-11 14:00N 51°21' E 004°18'3 5.1
2018-Feb-11 13:30N 51°18' E 004°19'2 4.1
2018-Feb-11 13:00N 51°17' E 004°21'0 0.3
2018-Feb-11 12:26N 51°16' E 004°21'0 0.0
2018-Feb-11 11:56N 51°16' E 004°21'0 0.0
2018-Feb-11 11:23N 51°16' E 004°21'0 0.0
2018-Feb-11 10:59N 51°16' E 004°21'0 0.0
2018-Feb-11 10:29N 51°16' E 004°21'0 0.0
2018-Feb-11 09:59N 51°16' E 004°21'0 0.0
2018-Feb-11 09:29N 51°16' E 004°21'0 0.0
2018-Feb-11 08:53N 51°16' E 004°21'0 0.0
2018-Feb-11 08:20N 51°16' E 004°21'0 0.0
2018-Feb-11 07:50N 51°16' E 004°21'0 0.0
2018-Feb-11 07:29N 51°16' E 004°21'0 0.0
2018-Feb-11 06:59N 51°16' E 004°21'0 0.0
2018-Feb-11 06:23N 51°16' E 004°21'0 0.0
2018-Feb-11 05:59N 51°16' E 004°21'0 0.0
2018-Feb-11 05:29N 51°16' E 004°21'0 0.0
2018-Feb-11 04:59N 51°16' E 004°21'0 0.0
2018-Feb-11 04:29N 51°16' E 004°21'0 0.0
2018-Feb-11 03:56N 51°16' E 004°21'0 0.0
2018-Feb-11 03:17N 51°16' E 004°21'0 0.0
2018-Feb-11 02:59N 51°16' E 004°21'0 0.0
2018-Feb-11 02:29N 51°16' E 004°21'0 0.0
2018-Feb-11 01:59N 51°16' E 004°21'0 0.0
2018-Feb-11 01:26N 51°16' E 004°21'0 0.0
2018-Feb-11 00:53N 51°16' E 004°21'0 0.0
2018-Feb-11 00:29N 51°16' E 004°21'0 0.0
2018-Feb-10 23:59N 51°16' E 004°21'0 0.0
2018-Feb-10 23:29N 51°16' E 004°21'0 0.0
2018-Feb-10 22:59N 51°16' E 004°21'0 0.0
2018-Feb-10 22:26N 51°16' E 004°21'0 0.0
2018-Feb-10 21:41N 51°16' E 004°21'0 0.0
2018-Feb-10 21:29N 51°16' E 004°21'0 0.0
2018-Feb-10 20:56N 51°16' E 004°21'0 0.0
2018-Feb-10 20:29N 51°16' E 004°21'0 0.0
2018-Feb-10 19:59N 51°16' E 004°21'0 0.0
2018-Feb-10 19:26N 51°16' E 004°21'0 0.0
2018-Feb-10 18:59N 51°16' E 004°21'0 0.0
2018-Feb-10 18:29N 51°16' E 004°21'0 0.0
2018-Feb-10 17:56N 51°16' E 004°21'0 0.0
2018-Feb-10 17:23N 51°16' E 004°21'0 0.0
2018-Feb-10 16:59N 51°16' E 004°21'0 0.0
2018-Feb-10 16:29N 51°16' E 004°21'0 0.0
2018-Feb-10 15:59N 51°16' E 004°21'0 0.1
2018-Feb-10 15:29N 51°16' E 004°21'0 0.0
2018-Feb-10 14:56N 51°16' E 004°21'0 0.0
2018-Feb-10 14:26N 51°16' E 004°21'0 0.0
2018-Feb-10 13:59N 51°16' E 004°21'0 0.0
2018-Feb-10 13:29N 51°16' E 004°21'0 0.0
2018-Feb-10 12:56N 51°16' E 004°21'0 0.0
2018-Feb-10 12:20N 51°16' E 004°21'0 0.0
2018-Feb-10 11:56N 51°16' E 004°21'0 0.0
2018-Feb-10 11:23N 51°16' E 004°21'0 0.0
2018-Feb-10 10:59N 51°16' E 004°21'0 0.0
2018-Feb-10 10:29N 51°16' E 004°21'0 0.0
2018-Feb-10 09:59N 51°16' E 004°21'0 0.0
2018-Feb-10 09:29N 51°16' E 004°21'0 0.0
2018-Feb-10 08:59N 51°16' E 004°21'0 0.0
2018-Feb-10 08:29N 51°16' E 004°21'0 0.0
2018-Feb-10 07:59N 51°16' E 004°21'0 0.0
2018-Feb-10 07:26N 51°16' E 004°21'0 0.0
2018-Feb-10 06:56N 51°16' E 004°21'0 0.0
2018-Feb-10 06:17N 51°16' E 004°21'0 0.0
2018-Feb-10 05:59N 51°16' E 004°21'0 0.0
2018-Feb-10 05:26N 51°16' E 004°21'0 0.0
2018-Feb-10 04:59N 51°16' E 004°21'0 0.0
2018-Feb-10 04:26N 51°16' E 004°21'0 0.0
2018-Feb-10 03:59N 51°16' E 004°21'0 0.0
2018-Feb-10 03:26N 51°16' E 004°21'0 0.0
2018-Feb-10 02:56N 51°16' E 004°21'0 0.0
2018-Feb-10 02:29N 51°16' E 004°21'0 0.0
2018-Feb-10 01:59N 51°16' E 004°21'0 0.0
2018-Feb-10 01:20N 51°16' E 004°21'0 0.1
2018-Feb-10 00:59N 51°16' E 004°21'0 0.0
2018-Feb-10 00:26N 51°16' E 004°21'0 0.0
2018-Feb-09 23:59N 51°16' E 004°21'0 0.0
2018-Feb-09 23:29N 51°16' E 004°21'0 0.0
2018-Feb-09 22:56N 51°16' E 004°21'0 0.1
2018-Feb-09 22:44N 51°16' E 004°21'0 0.0
2018-Feb-08 01:26N 51°16' E 004°21'0 0.0
2018-Feb-08 00:56N 51°16' E 004°21'0 0.0
2018-Feb-08 00:29N 51°16' E 004°21'0 0.0
2018-Feb-07 23:59N 51°16' E 004°21'0 0.0
2018-Feb-07 23:29N 51°16' E 004°21'0 0.0
2018-Feb-07 22:59N 51°16' E 004°21'0 0.0
2018-Feb-07 22:29N 51°16' E 004°21'0 0.0
2018-Feb-07 21:56N 51°16' E 004°21'0 0.0
2018-Feb-07 21:23N 51°16' E 004°21'  
Track history (hours):
 
Tides and Currents Weather Stations Pressure Air Temp Water Temp Dewpoint Dewpoint Depression Visibility Wind Speed Wind Dir Waves Ship Positions

Iris Victoria

Last reported at 2018-Feb-17 19:18 UTC. Time now 2018-Feb-22 19:25 UTC.
Position N 27°35' W 015°14'.

Length 228 m; draft 13.1 m.

Type: Tanker. MMSI: 538003876.

Date/timePositionNaut miles runAvg speedWind from/ knotsBaromVisibWave heightAir tempDewpointWater temp
2018-Feb-17 19:18N 27°35' W 015°14'414.8
2018-Feb-17 19:00N 27°39' W 015°12'815.2
2018-Feb-17 18:29N 27°46' W 015°09'715.5
2018-Feb-17 18:01N 27°53' W 015°07'815.1
2018-Feb-17 17:31N 28°00' W 015°04'714.8
2018-Feb-17 17:00N 28°07' W 015°01'714.9
2018-Feb-17 16:30N 28°14' W 014°58'714.8
2018-Feb-17 16:00N 28°21' W 014°55'715.0
2018-Feb-17 15:30N 28°28' W 014°52'714.9
2018-Feb-17 15:00N 28°35' W 014°50'814.7
2018-Feb-17 14:29N 28°43' W 014°48'  
2018-Feb-12 21:09N 49°46' W 003°49'212.5
2018-Feb-12 21:00N 49°47' W 003°47'712.3
2018-Feb-12 20:24N 49°50' W 003°36'512.1
2018-Feb-12 19:57N 49°52' W 003°28'511.7
2018-Feb-12 19:30N 49°54' W 003°21'611.5
2018-Feb-12 19:00N 49°56' W 003°13'611.5
2018-Feb-12 18:30N 49°58' W 003°04'611.2
2018-Feb-12 18:00N 49°59' W 002°56'611.0
2018-Feb-12 17:30N 50°01' W 002°47'611.2
2018-Feb-12 16:59N 50°02' W 002°39'2011.6
2018-Feb-12 15:14N 50°08' W 002°08'312.6
2018-Feb-12 15:00N 50°09' W 002°04'612.4
2018-Feb-12 14:30N 50°10' W 001°55'612.8
2018-Feb-12 14:00N 50°12' W 001°45'713.4
2018-Feb-12 13:30N 50°13' W 001°35'713.8
2018-Feb-12 13:01N 50°15' W 001°24'714.0
2018-Feb-12 12:30N 50°17' W 001°14'2814.1
2018-Feb-12 10:29N 50°24' W 000°31'613.4
2018-Feb-12 10:01N 50°26' W 000°21'612.8
2018-Feb-12 09:30N 50°28' W 000°11'612.2
2018-Feb-12 09:01N 50°29' W 000°02'611.6
2018-Feb-12 08:29N 50°31' E 000°07'511.2
2018-Feb-12 08:00N 50°32' E 000°15'611.1
2018-Feb-12 07:30N 50°34' E 000°24'511.0
2018-Feb-12 07:00N 50°35' E 000°32'611.2
2018-Feb-12 06:30N 50°38' E 000°40'611.6
2018-Feb-12 06:00N 50°41' E 000°47'612.0
2018-Feb-12 05:30N 50°44' E 000°55'612.6
2018-Feb-12 05:00N 50°47' E 001°04'713.3
2018-Feb-12 04:30N 50°51' E 001°13'713.9
2018-Feb-12 04:00N 50°56' E 001°20'714.2
2018-Feb-12 03:31N 51°01' E 001°28'714.3
2018-Feb-12 03:00N 51°07' E 001°36'713.7
2018-Feb-12 02:30N 51°12' E 001°43'612.9
2018-Feb-12 02:00N 51°17' E 001°49'612.3
2018-Feb-12 01:30N 51°22' E 001°55'510.3
2018-Feb-12 01:00N 51°25' E 002°02'510.8
2018-Feb-12 00:30N 51°23' E 002°10'610.8
2018-Feb-11 23:59N 51°20' E 002°18'510.7
2018-Feb-11 23:30N 51°22' E 002°26'610.3
2018-Feb-11 22:58N 51°23' E 002°35'510.1
2018-Feb-11 22:28N 51°22' E 002°43'4 8.4
2018-Feb-11 22:00N 51°25' E 002°48'5 9.3
2018-Feb-11 21:30N 51°25' E 002°55'5 9.9
2018-Feb-11 21:00N 51°25' E 003°03'5 9.6
2018-Feb-11 20:30N 51°24' E 003°11'510.1
2018-Feb-11 20:00N 51°24' E 003°19'510.5
2018-Feb-11 19:30N 51°25' E 003°27'5 9.6
2018-Feb-11 19:00N 51°26' E 003°35'3 5.9
2018-Feb-11 18:30N 51°26' E 003°39'5 9.8
2018-Feb-11 18:00N 51°23' E 003°44'611.4
2018-Feb-11 17:30N 51°21' E 003°53'611.5
2018-Feb-11 17:00N 51°26' E 003°58'5 9.5
2018-Feb-11 16:30N 51°22' E 004°04'611.1
2018-Feb-11 16:00N 51°24' E 004°12'4 8.4
2018-Feb-11 15:31N 51°21' E 004°17'0 0.4
2018-Feb-11 15:00N 51°21' E 004°17'0 0.0
2018-Feb-11 14:30N 51°21' E 004°17'0 0.8
2018-Feb-11 14:00N 51°21' E 004°18'3 5.1
2018-Feb-11 13:30N 51°18' E 004°19'2 4.1
2018-Feb-11 13:00N 51°17' E 004°21'0 0.3
2018-Feb-11 12:26N 51°16' E 004°21'0 0.0
2018-Feb-11 11:56N 51°16' E 004°21'0 0.0
2018-Feb-11 11:23N 51°16' E 004°21'0 0.0
2018-Feb-11 10:59N 51°16' E 004°21'0 0.0
2018-Feb-11 10:29N 51°16' E 004°21'0 0.0
2018-Feb-11 09:59N 51°16' E 004°21'0 0.0
2018-Feb-11 09:29N 51°16' E 004°21'0 0.0
2018-Feb-11 08:53N 51°16' E 004°21'0 0.0
2018-Feb-11 08:20N 51°16' E 004°21'0 0.0
2018-Feb-11 07:50N 51°16' E 004°21'0 0.0
2018-Feb-11 07:29N 51°16' E 004°21'0 0.0
2018-Feb-11 06:59N 51°16' E 004°21'0 0.0
2018-Feb-11 06:23N 51°16' E 004°21'0 0.0
2018-Feb-11 05:59N 51°16' E 004°21'0 0.0
2018-Feb-11 05:29N 51°16' E 004°21'0 0.0
2018-Feb-11 04:59N 51°16' E 004°21'0 0.0
2018-Feb-11 04:29N 51°16' E 004°21'0 0.0
2018-Feb-11 03:56N 51°16' E 004°21'0 0.0
2018-Feb-11 03:17N 51°16' E 004°21'0 0.0
2018-Feb-11 02:59N 51°16' E 004°21'0 0.0
2018-Feb-11 02:29N 51°16' E 004°21'0 0.0
2018-Feb-11 01:59N 51°16' E 004°21'0 0.0
2018-Feb-11 01:26N 51°16' E 004°21'0 0.0
2018-Feb-11 00:53N 51°16' E 004°21'0 0.0
2018-Feb-11 00:29N 51°16' E 004°21'0 0.0
2018-Feb-10 23:59N 51°16' E 004°21'0 0.0
2018-Feb-10 23:29N 51°16' E 004°21'0 0.0
2018-Feb-10 22:59N 51°16' E 004°21'0 0.0
2018-Feb-10 22:26N 51°16' E 004°21'0 0.0
2018-Feb-10 21:41N 51°16' E 004°21'0 0.0
2018-Feb-10 21:29N 51°16' E 004°21'0 0.0
2018-Feb-10 20:56N 51°16' E 004°21'0 0.0
2018-Feb-10 20:29N 51°16' E 004°21'0 0.0
2018-Feb-10 19:59N 51°16' E 004°21'0 0.0
2018-Feb-10 19:26N 51°16' E 004°21'0 0.0
2018-Feb-10 18:59N 51°16' E 004°21'0 0.0
2018-Feb-10 18:29N 51°16' E 004°21'0 0.0
2018-Feb-10 17:56N 51°16' E 004°21'0 0.0
2018-Feb-10 17:23N 51°16' E 004°21'0 0.0
2018-Feb-10 16:59N 51°16' E 004°21'0 0.0
2018-Feb-10 16:29N 51°16' E 004°21'0 0.0
2018-Feb-10 15:59N 51°16' E 004°21'0 0.1
2018-Feb-10 15:29N 51°16' E 004°21'0 0.0
2018-Feb-10 14:56N 51°16' E 004°21'0 0.0
2018-Feb-10 14:26N 51°16' E 004°21'0 0.0
2018-Feb-10 13:59N 51°16' E 004°21'0 0.0
2018-Feb-10 13:29N 51°16' E 004°21'0 0.0
2018-Feb-10 12:56N 51°16' E 004°21'0 0.0
2018-Feb-10 12:20N 51°16' E 004°21'0 0.0
2018-Feb-10 11:56N 51°16' E 004°21'0 0.0
2018-Feb-10 11:23N 51°16' E 004°21'0 0.0
2018-Feb-10 10:59N 51°16' E 004°21'0 0.0
2018-Feb-10 10:29N 51°16' E 004°21'0 0.0
2018-Feb-10 09:59N 51°16' E 004°21'0 0.0
2018-Feb-10 09:29N 51°16' E 004°21'0 0.0
2018-Feb-10 08:59N 51°16' E 004°21'0 0.0
2018-Feb-10 08:29N 51°16' E 004°21'0 0.0
2018-Feb-10 07:59N 51°16' E 004°21'0 0.0
2018-Feb-10 07:26N 51°16' E 004°21'0 0.0
2018-Feb-10 06:56N 51°16' E 004°21'0 0.0
2018-Feb-10 06:17N 51°16' E 004°21'0 0.0
2018-Feb-10 05:59N 51°16' E 004°21'0 0.0
2018-Feb-10 05:26N 51°16' E 004°21'0 0.0
2018-Feb-10 04:59N 51°16' E 004°21'0 0.0
2018-Feb-10 04:26N 51°16' E 004°21'0 0.0
2018-Feb-10 03:59N 51°16' E 004°21'0 0.0
2018-Feb-10 03:26N 51°16' E 004°21'0 0.0
2018-Feb-10 02:56N 51°16' E 004°21'0 0.0
2018-Feb-10 02:29N 51°16' E 004°21'0 0.0
2018-Feb-10 01:59N 51°16' E 004°21'0 0.0
2018-Feb-10 01:20N 51°16' E 004°21'0 0.1
2018-Feb-10 00:59N 51°16' E 004°21'0 0.0
2018-Feb-10 00:26N 51°16' E 004°21'0 0.0
2018-Feb-09 23:59N 51°16' E 004°21'0 0.0
2018-Feb-09 23:29N 51°16' E 004°21'0 0.0
2018-Feb-09 22:56N 51°16' E 004°21'0 0.1
2018-Feb-09 22:44N 51°16' E 004°21'0 0.0
2018-Feb-08 01:26N 51°16' E 004°21'0 0.0
2018-Feb-08 00:56N 51°16' E 004°21'0 0.0
2018-Feb-08 00:29N 51°16' E 004°21'0 0.0
2018-Feb-07 23:59N 51°16' E 004°21'0 0.0
2018-Feb-07 23:29N 51°16' E 004°21'0 0.0
2018-Feb-07 22:59N 51°16' E 004°21'0 0.0
2018-Feb-07 22:29N 51°16' E 004°21'0 0.0
2018-Feb-07 21:56N 51°16' E 004°21'0 0.0
2018-Feb-07 21:23N 51°16' E 004°21'  

Dump ship's entire track history